Bear River, Wyoming
Current Conditions -  °F | °C
As of 12:53 AM on Friday 28 Nov 2014 (Local Time) from KEVW Reporting Station
Clear Clear  
Wind Chill: 31°   Ceiling: Unl
Heat Index: 39°   Visibility: 10mi
Dew Point: 18°   Wind: 13mph
Humidity: 43%   Direction: 230°SW
Pressure: 30.16"   Gusts: NA
Location:  41.2776°N, 110.814°W
Report Text: KEVW 280753Z AUTO 23011KT 10SM CLR 04/M08 A3016 RMK AO2 SLP172 T00391078
Loading
Personal Weather Stations






























Interactive Weather Map New forecast layout! Learn more

10-Day Weather Forecast

Advertisements
Track Severe Weather on mobile